sensor_id;sensor_type;location;lat;lon;timestamp;pressure;altitude;pressure_sealevel;temperature;humidity
40502;BME280;29631;49.168;9.848;2023-06-24T00:02:14;97534.50;;;23.62;87.42
40502;BME280;29631;49.168;9.848;2023-06-24T00:04:39;97520.16;;;23.46;87.08
40502;BME280;29631;49.168;9.848;2023-06-24T00:07:05;97531.47;;;23.43;87.91
40502;BME280;29631;49.168;9.848;2023-06-24T00:09:32;97528.50;;;23.45;87.81
40502;BME280;29631;49.168;9.848;2023-06-24T00:11:58;97540.34;;;23.44;87.59
40502;BME280;29631;49.168;9.848;2023-06-24T00:14:25;97529.84;;;23.38;87.27
40502;BME280;29631;49.168;9.848;2023-06-24T00:16:53;97530.38;;;23.40;87.41
40502;BME280;29631;49.168;9.848;2023-06-24T00:19:24;97511.47;;;23.25;87.35
40502;BME280;29631;49.168;9.848;2023-06-24T00:21:51;97531.41;;;23.29;86.93
40502;BME280;29631;49.168;9.848;2023-06-24T00:24:21;97525.41;;;23.12;87.17
40502;BME280;29631;49.168;9.848;2023-06-24T00:26:53;97515.19;;;23.14;87.22
40502;BME280;29631;49.168;9.848;2023-06-24T00:29:20;97520.59;;;23.14;86.89
40502;BME280;29631;49.168;9.848;2023-06-24T00:31:45;97509.75;;;23.04;87.25
40502;BME280;29631;49.168;9.848;2023-06-24T00:34:11;97527.53;;;23.10;86.76
40502;BME280;29631;49.168;9.848;2023-06-24T00:36:37;97534.53;;;23.06;86.66
40502;BME280;29631;49.168;9.848;2023-06-24T00:39:04;97545.25;;;23.01;85.95
40502;BME280;29631;49.168;9.848;2023-06-24T00:41:31;97525.28;;;22.97;86.28
40502;BME280;29631;49.168;9.848;2023-06-24T00:43:58;97529.00;;;22.86;86.68
40502;BME280;29631;49.168;9.848;2023-06-24T00:46:28;97530.63;;;22.87;86.71
40502;BME280;29631;49.168;9.848;2023-06-24T00:48:57;97479.31;;;22.52;86.43
40502;BME280;29631;49.168;9.848;2023-06-24T00:51:23;97516.81;;;22.73;86.21
40502;BME280;29631;49.168;9.848;2023-06-24T00:53:56;97531.63;;;22.76;86.59
40502;BME280;29631;49.168;9.848;2023-06-24T00:56:29;97518.91;;;22.62;86.43
40502;BME280;29631;49.168;9.848;2023-06-24T00:59:03;97532.13;;;22.68;85.95
40502;BME280;29631;49.168;9.848;2023-06-24T01:01:35;97520.75;;;22.56;86.09
40502;BME280;29631;49.168;9.848;2023-06-24T01:04:02;97536.69;;;22.67;86.37
40502;BME280;29631;49.168;9.848;2023-06-24T01:10:10;97517.78;;;22.53;86.14
40502;BME280;29631;49.168;9.848;2023-06-24T01:12:39;97507.78;;;22.48;85.87
40502;BME280;29631;49.168;9.848;2023-06-24T01:15:08;97513.69;;;22.50;86.21
40502;BME280;29631;49.168;9.848;2023-06-24T01:18:24;97520.09;;;22.44;86.29
40502;BME280;29631;49.168;9.848;2023-06-24T01:21:21;97505.53;;;22.35;86.21
40502;BME280;29631;49.168;9.848;2023-06-24T01:27:14;97515.44;;;22.30;85.98
40502;BME280;29631;49.168;9.848;2023-06-24T01:30:00;97505.34;;;22.15;85.54
40502;BME280;29631;49.168;9.848;2023-06-24T01:32:56;97506.69;;;22.13;86.15
40502;BME280;29631;49.168;9.848;2023-06-24T01:35:33;97513.38;;;22.10;85.86
40502;BME280;29631;49.168;9.848;2023-06-24T01:38:07;97518.19;;;22.08;86.10
40502;BME280;29631;49.168;9.848;2023-06-24T01:40:45;97509.81;;;22.05;86.16
40502;BME280;29631;49.168;9.848;2023-06-24T01:43:12;97511.16;;;22.02;86.18
40502;BME280;29631;49.168;9.848;2023-06-24T01:45:43;97505.66;;;21.92;85.87
40502;BME280;29631;49.168;9.848;2023-06-24T01:48:24;97491.09;;;21.84;85.82
40502;BME280;29631;49.168;9.848;2023-06-24T01:51:18;97507.81;;;21.91;85.59
40502;BME280;29631;49.168;9.848;2023-06-24T01:53:54;97496.47;;;21.84;85.68
40502;BME280;29631;49.168;9.848;2023-06-24T01:56:25;97499.66;;;21.81;85.86
40502;BME280;29631;49.168;9.848;2023-06-24T01:58:54;97508.84;;;21.85;85.92
40502;BME280;29631;49.168;9.848;2023-06-24T02:01:22;97467.75;;;21.58;85.81
40502;BME280;29631;49.168;9.848;2023-06-24T02:03:49;97501.53;;;21.80;85.35
40502;BME280;29631;49.168;9.848;2023-06-24T02:06:15;97485.53;;;21.64;85.92
40502;BME280;29631;49.168;9.848;2023-06-24T02:08:43;97493.63;;;21.69;85.89
40502;BME280;29631;49.168;9.848;2023-06-24T02:11:09;97480.66;;;21.61;85.76
40502;BME280;29631;49.168;9.848;2023-06-24T02:13:37;97491.16;;;21.62;85.88
40502;BME280;29631;49.168;9.848;2023-06-24T02:16:06;97494.16;;;21.66;85.76
40502;BME280;29631;49.168;9.848;2023-06-24T02:18:39;97496.00;;;21.65;85.95
40502;BME280;29631;49.168;9.848;2023-06-24T02:21:09;97463.25;;;21.42;85.36
40502;BME280;29631;49.168;9.848;2023-06-24T02:23:37;97489.78;;;21.60;85.07
40502;BME280;29631;49.168;9.848;2023-06-24T02:26:04;97477.03;;;21.50;85.27
40502;BME280;29631;49.168;9.848;2023-06-24T02:28:32;97475.75;;;21.53;85.48
40502;BME280;29631;49.168;9.848;2023-06-24T02:30:59;97461.63;;;21.41;85.55
40502;BME280;29631;49.168;9.848;2023-06-24T02:33:25;97482.09;;;21.47;85.45
40502;BME280;29631;49.168;9.848;2023-06-24T02:35:55;97468.88;;;21.40;84.98
40502;BME280;29631;49.168;9.848;2023-06-24T02:38:20;97483.97;;;21.46;85.40
40502;BME280;29631;49.168;9.848;2023-06-24T02:40:47;97485.00;;;21.40;85.30
40502;BME280;29631;49.168;9.848;2023-06-24T02:43:14;97479.31;;;21.37;85.34
40502;BME280;29631;49.168;9.848;2023-06-24T02:45:40;97491.69;;;21.38;85.26
40502;BME280;29631;49.168;9.848;2023-06-24T02:48:09;97502.09;;;21.34;85.23
40502;BME280;29631;49.168;9.848;2023-06-24T02:53:02;97469.47;;;21.21;85.17
40502;BME280;29631;49.168;9.848;2023-06-24T02:55:29;97472.66;;;21.18;85.42
40502;BME280;29631;49.168;9.848;2023-06-24T02:57:55;97468.25;;;21.07;85.55
40502;BME280;29631;49.168;9.848;2023-06-24T03:00:23;97468.88;;;21.14;85.60
40502;BME280;29631;49.168;9.848;2023-06-24T03:02:50;97473.34;;;21.09;85.06
40502;BME280;29631;49.168;9.848;2023-06-24T03:05:16;97495.50;;;21.20;85.12
40502;BME280;29631;49.168;9.848;2023-06-24T03:07:44;97476.84;;;21.09;85.16
40502;BME280;29631;49.168;9.848;2023-06-24T03:10:11;97494.59;;;21.15;85.05
40502;BME280;29631;49.168;9.848;2023-06-24T03:12:36;97493.75;;;21.10;84.82
40502;BME280;29631;49.168;9.848;2023-06-24T03:15:03;97494.06;;;21.13;85.27
40502;BME280;29631;49.168;9.848;2023-06-24T03:17:29;97474.47;;;20.91;85.52
40502;BME280;29631;49.168;9.848;2023-06-24T03:19:55;97493.38;;;21.01;85.19
40502;BME280;29631;49.168;9.848;2023-06-24T03:22:22;97501.44;;;21.01;85.19
40502;BME280;29631;49.168;9.848;2023-06-24T03:24:48;97432.16;;;20.55;85.08
40502;BME280;29631;49.168;9.848;2023-06-24T03:27:14;97492.19;;;20.92;85.54
40502;BME280;29631;49.168;9.848;2023-06-24T03:29:40;97509.91;;;20.93;85.30
40502;BME280;29631;49.168;9.848;2023-06-24T03:32:06;97498.34;;;20.93;85.30
40502;BME280;29631;49.168;9.848;2023-06-24T03:34:32;97508.28;;;20.92;85.43
40502;BME280;29631;49.168;9.848;2023-06-24T03:36:58;97497.44;;;20.82;85.48
40502;BME280;29631;49.168;9.848;2023-06-24T03:39:24;97520.13;;;20.96;84.75
40502;BME280;29631;49.168;9.848;2023-06-24T03:41:50;97497.97;;;20.84;85.47
40502;BME280;29631;49.168;9.848;2023-06-24T03:44:15;97513.31;;;20.89;84.98
40502;BME280;29631;49.168;9.848;2023-06-24T03:46:41;97500.91;;;20.83;85.28
40502;BME280;29631;49.168;9.848;2023-06-24T03:49:07;97518.69;;;20.89;85.46
40502;BME280;29631;49.168;9.848;2023-06-24T03:51:32;97508.63;;;20.79;85.12
40502;BME280;29631;49.168;9.848;2023-06-24T03:53:58;97488.63;;;20.70;85.21
40502;BME280;29631;49.168;9.848;2023-06-24T03:56:24;97518.88;;;20.82;85.33
40502;BME280;29631;49.168;9.848;2023-06-24T03:58:50;97516.09;;;20.77;85.63
40502;BME280;29631;49.168;9.848;2023-06-24T04:01:15;97522.53;;;20.76;85.53
40502;BME280;29631;49.168;9.848;2023-06-24T04:03:45;97501.50;;;20.68;85.59
40502;BME280;29631;49.168;9.848;2023-06-24T04:06:11;97533.97;;;20.88;85.70
40502;BME280;29631;49.168;9.848;2023-06-24T04:08:36;97517.16;;;20.76;85.59
40502;BME280;29631;49.168;9.848;2023-06-24T04:11:06;97533.66;;;20.85;86.02
40502;BME280;29631;49.168;9.848;2023-06-24T04:13:33;97509.03;;;20.71;85.95
40502;BME280;29631;49.168;9.848;2023-06-24T04:15:58;97540.13;;;20.89;86.62
40502;BME280;29631;49.168;9.848;2023-06-24T04:18:24;97557.97;;;21.00;86.20
40502;BME280;29631;49.168;9.848;2023-06-24T04:20:50;97544.19;;;20.91;86.50
40502;BME280;29631;49.168;9.848;2023-06-24T04:23:16;97552.81;;;20.93;86.58
40502;BME280;29631;49.168;9.848;2023-06-24T04:25:41;97527.97;;;20.81;86.66
40502;BME280;29631;49.168;9.848;2023-06-24T04:28:08;97551.25;;;20.97;86.78
40502;BME280;29631;49.168;9.848;2023-06-24T04:30:34;97527.47;;;20.84;86.63
40502;BME280;29631;49.168;9.848;2023-06-24T04:33:04;97549.94;;;21.00;87.35
40502;BME280;29631;49.168;9.848;2023-06-24T04:35:30;97549.19;;;21.04;87.33
40502;BME280;29631;49.168;9.848;2023-06-24T04:37:56;97555.44;;;21.10;87.25
40502;BME280;29631;49.168;9.848;2023-06-24T04:40:22;97545.78;;;21.09;87.50
40502;BME280;29631;49.168;9.848;2023-06-24T04:42:48;97561.19;;;21.18;87.42
40502;BME280;29631;49.168;9.848;2023-06-24T04:45:14;97553.41;;;21.17;87.56
40502;BME280;29631;49.168;9.848;2023-06-24T04:47:39;97545.41;;;21.21;87.38
40502;BME280;29631;49.168;9.848;2023-06-24T04:50:06;97551.41;;;21.28;87.63
40502;BME280;29631;49.168;9.848;2023-06-24T04:52:35;97551.66;;;21.27;87.87
40502;BME280;29631;49.168;9.848;2023-06-24T04:55:01;97561.13;;;21.34;87.71
40502;BME280;29631;49.168;9.848;2023-06-24T04:57:29;97575.53;;;21.50;87.48
40502;BME280;29631;49.168;9.848;2023-06-24T04:59:56;97546.88;;;21.34;88.13
40502;BME280;29631;49.168;9.848;2023-06-24T05:02:22;97565.28;;;21.47;88.15
40502;BME280;29631;49.168;9.848;2023-06-24T05:04:48;97554.75;;;21.40;88.28
40502;BME280;29631;49.168;9.848;2023-06-24T05:07:14;97569.19;;;21.56;88.29
40502;BME280;29631;49.168;9.848;2023-06-24T05:09:40;97563.84;;;21.56;88.54
40502;BME280;29631;49.168;9.848;2023-06-24T05:12:07;97552.28;;;21.55;88.32
40502;BME280;29631;49.168;9.848;2023-06-24T05:14:36;97560.72;;;21.64;88.77
40502;BME280;29631;49.168;9.848;2023-06-24T05:17:03;97578.06;;;21.78;88.41
40502;BME280;29631;49.168;9.848;2023-06-24T05:19:29;97575.38;;;21.78;88.62
40502;BME280;29631;49.168;9.848;2023-06-24T05:21:55;97583.50;;;21.88;89.01
40502;BME280;29631;49.168;9.848;2023-06-24T05:24:20;97565.47;;;21.83;88.57
40502;BME280;29631;49.168;9.848;2023-06-24T05:26:49;97569.03;;;21.89;88.71
40502;BME280;29631;49.168;9.848;2023-06-24T05:29:16;97580.38;;;21.95;88.45
40502;BME280;29631;49.168;9.848;2023-06-24T05:31:42;97575.06;;;22.00;88.67
40502;BME280;29631;49.168;9.848;2023-06-24T05:34:08;97592.88;;;22.11;88.65
40502;BME280;29631;49.168;9.848;2023-06-24T05:36:34;97583.72;;;22.07;88.88
40502;BME280;29631;49.168;9.848;2023-06-24T05:39:00;97577.28;;;22.08;88.78
40502;BME280;29631;49.168;9.848;2023-06-24T05:41:26;97582.72;;;22.13;88.85
40502;BME280;29631;49.168;9.848;2023-06-24T05:44:07;97572.78;;;22.14;88.91
40502;BME280;29631;49.168;9.848;2023-06-24T05:46:34;97563.84;;;22.08;89.05
40502;BME280;29631;49.168;9.848;2023-06-24T05:49:00;97589.28;;;22.27;88.73
40502;BME280;29631;49.168;9.848;2023-06-24T05:51:25;97595.81;;;22.31;88.56
40502;BME280;29631;49.168;9.848;2023-06-24T05:53:51;97594.78;;;22.37;88.47
40502;BME280;29631;49.168;9.848;2023-06-24T05:56:18;97601.28;;;22.41;88.25
40502;BME280;29631;49.168;9.848;2023-06-24T05:58:43;97579.19;;;22.34;88.47
40502;BME280;29631;49.168;9.848;2023-06-24T06:01:10;97595.91;;;22.41;88.25
40502;BME280;29631;49.168;9.848;2023-06-24T06:03:36;97565.88;;;22.23;88.18
40502;BME280;29631;49.168;9.848;2023-06-24T06:06:02;97595.97;;;22.51;88.63
40502;BME280;29631;49.168;9.848;2023-06-24T06:08:27;97580.38;;;22.48;88.72
40502;BME280;29631;49.168;9.848;2023-06-24T06:10:53;97585.81;;;22.58;88.26
40502;BME280;29631;49.168;9.848;2023-06-24T06:13:19;97587.47;;;22.64;88.20
40502;BME280;29631;49.168;9.848;2023-06-24T06:15:45;97588.03;;;22.66;87.69
40502;BME280;29631;49.168;9.848;2023-06-24T06:18:11;97585.38;;;22.71;88.10
40502;BME280;29631;49.168;9.848;2023-06-24T06:20:37;97604.31;;;22.81;87.68
40502;BME280;29631;49.168;9.848;2023-06-24T06:23:03;97598.41;;;22.89;87.78
40502;BME280;29631;49.168;9.848;2023-06-24T06:25:28;97587.94;;;22.92;87.90
40502;BME280;29631;49.168;9.848;2023-06-24T06:27:54;97585.53;;;22.91;86.89
40502;BME280;29631;49.168;9.848;2023-06-24T06:30:20;97529.63;;;22.57;87.51
40502;BME280;29631;49.168;9.848;2023-06-24T06:32:46;97577.47;;;22.96;87.31
40502;BME280;29631;49.168;9.848;2023-06-24T06:35:11;97570.25;;;23.01;87.32
40502;BME280;29631;49.168;9.848;2023-06-24T06:37:37;97587.59;;;23.15;87.20
40502;BME280;29631;49.168;9.848;2023-06-24T06:40:04;97594.09;;;23.24;86.48
40502;BME280;29631;49.168;9.848;2023-06-24T06:42:29;97578.19;;;23.18;87.22
40502;BME280;29631;49.168;9.848;2023-06-24T06:44:55;97589.56;;;23.30;86.47
40502;BME280;29631;49.168;9.848;2023-06-24T06:47:22;97580.38;;;23.26;86.37
40502;BME280;29631;49.168;9.848;2023-06-24T06:49:47;97590.69;;;23.43;86.65
40502;BME280;29631;49.168;9.848;2023-06-24T06:52:13;97564.75;;;23.28;86.39
40502;BME280;29631;49.168;9.848;2023-06-24T06:54:39;97585.34;;;23.48;86.48
40502;BME280;29631;49.168;9.848;2023-06-24T06:57:05;97580.00;;;23.58;86.40
40502;BME280;29631;49.168;9.848;2023-06-24T06:59:31;97579.47;;;23.61;85.99
40502;BME280;29631;49.168;9.848;2023-06-24T07:01:57;97580.03;;;23.68;85.84
40502;BME280;29631;49.168;9.848;2023-06-24T07:04:23;97573.88;;;23.73;85.65
40502;BME280;29631;49.168;9.848;2023-06-24T07:06:49;97579.00;;;23.79;85.82
40502;BME280;29631;49.168;9.848;2023-06-24T07:09:16;97578.22;;;23.89;85.80
40502;BME280;29631;49.168;9.848;2023-06-24T07:11:42;97582.31;;;23.96;85.53
40502;BME280;29631;49.168;9.848;2023-06-24T07:14:08;97566.66;;;23.98;85.30
40502;BME280;29631;49.168;9.848;2023-06-24T07:16:34;97572.59;;;24.05;84.56
40502;BME280;29631;49.168;9.848;2023-06-24T07:19:00;97574.25;;;24.16;85.03
40502;BME280;29631;49.168;9.848;2023-06-24T07:21:25;97586.09;;;24.25;84.24
40502;BME280;29631;49.168;9.848;2023-06-24T07:23:51;97588.84;;;24.35;84.66
40502;BME280;29631;49.168;9.848;2023-06-24T07:26:17;97587.22;;;24.44;83.94
40502;BME280;29631;49.168;9.848;2023-06-24T07:28:43;97562.13;;;24.38;84.27
40502;BME280;29631;49.168;9.848;2023-06-24T07:31:08;97569.44;;;24.53;83.91
40502;BME280;29631;49.168;9.848;2023-06-24T07:33:34;97575.66;;;24.63;83.90
40502;BME280;29631;49.168;9.848;2023-06-24T07:36:00;97548.66;;;24.53;83.88
40502;BME280;29631;49.168;9.848;2023-06-24T07:38:28;97565.66;;;24.64;83.35
40502;BME280;29631;49.168;9.848;2023-06-24T07:40:54;97577.25;;;24.74;83.45
40502;BME280;29631;49.168;9.848;2023-06-24T07:43:20;97554.59;;;24.55;83.60
40502;BME280;29631;49.168;9.848;2023-06-24T07:45:46;97590.47;;;24.90;83.48
40502;BME280;29631;49.168;9.848;2023-06-24T07:48:11;97577.50;;;24.92;83.74
40502;BME280;29631;49.168;9.848;2023-06-24T07:50:39;97584.22;;;25.05;83.60
40502;BME280;29631;49.168;9.848;2023-06-24T07:53:05;97570.72;;;25.05;83.32
40502;BME280;29631;49.168;9.848;2023-06-24T07:55:31;97578.56;;;25.16;83.41
40502;BME280;29631;49.168;9.848;2023-06-24T07:57:57;97580.69;;;25.29;83.69
40502;BME280;29631;49.168;9.848;2023-06-24T08:00:24;97568.78;;;25.35;82.89
40502;BME280;29631;49.168;9.848;2023-06-24T08:02:50;97568.50;;;25.42;82.92
40502;BME280;29631;49.168;9.848;2023-06-24T08:05:16;97563.88;;;25.47;82.51
40502;BME280;29631;49.168;9.848;2023-06-24T08:07:44;97567.66;;;25.51;82.36
40502;BME280;29631;49.168;9.848;2023-06-24T08:10:10;97568.16;;;25.58;82.77
40502;BME280;29631;49.168;9.848;2023-06-24T08:12:35;97583.25;;;25.74;82.76
40502;BME280;29631;49.168;9.848;2023-06-24T08:15:01;97569.44;;;25.75;81.95
40502;BME280;29631;49.168;9.848;2023-06-24T08:17:27;97560.50;;;25.80;82.01
40502;BME280;29631;49.168;9.848;2023-06-24T08:19:53;97573.38;;;25.98;81.94
40502;BME280;29631;49.168;9.848;2023-06-24T08:22:19;97577.69;;;26.04;82.30
40502;BME280;29631;49.168;9.848;2023-06-24T08:24:44;97571.13;;;26.15;81.84
40502;BME280;29631;49.168;9.848;2023-06-24T08:27:10;97581.31;;;26.28;81.60
40502;BME280;29631;49.168;9.848;2023-06-24T08:29:36;97564.00;;;26.24;80.77
40502;BME280;29631;49.168;9.848;2023-06-24T08:32:04;97580.19;;;26.39;80.59
40502;BME280;29631;49.168;9.848;2023-06-24T08:34:30;97563.16;;;26.38;80.54
40502;BME280;29631;49.168;9.848;2023-06-24T08:36:56;97577.91;;;26.50;80.38
40502;BME280;29631;49.168;9.848;2023-06-24T08:39:21;97567.09;;;26.50;80.02
40502;BME280;29631;49.168;9.848;2023-06-24T08:41:47;97577.59;;;26.57;80.14
40502;BME280;29631;49.168;9.848;2023-06-24T08:44:13;97575.63;;;26.67;79.73
40502;BME280;29631;49.168;9.848;2023-06-24T08:46:38;97570.22;;;26.67;79.64
40502;BME280;29631;49.168;9.848;2023-06-24T08:52:13;97573.97;;;26.71;79.00
40502;BME280;29631;49.168;9.848;2023-06-24T08:54:41;97562.28;;;26.76;79.21
40502;BME280;29631;49.168;9.848;2023-06-24T08:57:07;97559.22;;;26.82;79.38
40502;BME280;29631;49.168;9.848;2023-06-24T08:59:34;97570.78;;;26.93;79.09
40502;BME280;29631;49.168;9.848;2023-06-24T09:02:01;97553.81;;;26.82;78.97
40502;BME280;29631;49.168;9.848;2023-06-24T09:04:27;97569.41;;;26.95;78.93
40502;BME280;29631;49.168;9.848;2023-06-24T09:06:52;97564.78;;;27.01;78.92
40502;BME280;29631;49.168;9.848;2023-06-24T09:09:22;97560.63;;;27.08;78.10
40502;BME280;29631;49.168;9.848;2023-06-24T09:11:57;97577.75;;;27.27;77.66
40502;BME280;29631;49.168;9.848;2023-06-24T09:14:25;97565.53;;;27.29;77.89
40502;BME280;29631;49.168;9.848;2023-06-24T09:17:09;97555.28;;;27.26;77.43
40502;BME280;29631;49.168;9.848;2023-06-24T09:19:35;97567.91;;;27.36;77.72
40502;BME280;29631;49.168;9.848;2023-06-24T09:22:10;97554.94;;;27.33;77.73
40502;BME280;29631;49.168;9.848;2023-06-24T09:24:47;97551.81;;;27.44;77.91
40502;BME280;29631;49.168;9.848;2023-06-24T09:27:15;97542.28;;;27.47;77.32
40502;BME280;29631;49.168;9.848;2023-06-24T09:29:42;97545.41;;;27.59;77.47
40502;BME280;29631;49.168;9.848;2023-06-24T09:32:09;97543.16;;;27.66;77.62
40502;BME280;29631;49.168;9.848;2023-06-24T09:34:35;97537.19;;;27.69;76.88
40502;BME280;29631;49.168;9.848;2023-06-24T09:37:01;97551.41;;;27.79;75.94
40502;BME280;29631;49.168;9.848;2023-06-24T09:39:28;97534.63;;;27.77;75.82
40502;BME280;29631;49.168;9.848;2023-06-24T09:42:01;97538.22;;;27.91;76.15
40502;BME280;29631;49.168;9.848;2023-06-24T09:44:28;97526.59;;;27.91;75.61
40502;BME280;29631;49.168;9.848;2023-06-24T09:46:55;97525.31;;;28.01;75.67
40502;BME280;29631;49.168;9.848;2023-06-24T09:49:24;97534.91;;;28.12;76.01
40502;BME280;29631;49.168;9.848;2023-06-24T09:51:56;97528.88;;;28.20;75.24
40502;BME280;29631;49.168;9.848;2023-06-24T09:54:28;97529.31;;;28.27;75.47
40502;BME280;29631;49.168;9.848;2023-06-24T09:56:57;97514.34;;;28.30;74.67
40502;BME280;29631;49.168;9.848;2023-06-24T09:59:25;97493.91;;;28.19;75.04
40502;BME280;29631;49.168;9.848;2023-06-24T10:01:53;97528.97;;;28.47;74.74
40502;BME280;29631;49.168;9.848;2023-06-24T10:04:21;97517.16;;;28.57;75.38
40502;BME280;29631;49.168;9.848;2023-06-24T10:06:50;97524.72;;;28.73;75.48
40502;BME280;29631;49.168;9.848;2023-06-24T10:09:16;97502.50;;;28.71;75.14
40502;BME280;29631;49.168;9.848;2023-06-24T10:11:47;97499.03;;;28.84;74.32
40502;BME280;29631;49.168;9.848;2023-06-24T10:14:14;97520.28;;;29.09;74.47
40502;BME280;29631;49.168;9.848;2023-06-24T10:16:41;97502.34;;;29.08;73.77
40502;BME280;29631;49.168;9.848;2023-06-24T10:19:07;97511.44;;;29.17;73.81
40502;BME280;29631;49.168;9.848;2023-06-24T10:21:47;97492.41;;;29.17;73.71
40502;BME280;29631;49.168;9.848;2023-06-24T10:24:13;97506.19;;;29.34;73.62
40502;BME280;29631;49.168;9.848;2023-06-24T10:26:52;97478.31;;;29.28;73.48
40502;BME280;29631;49.168;9.848;2023-06-24T10:29:18;97481.16;;;29.37;73.02
40502;BME280;29631;49.168;9.848;2023-06-24T10:31:55;97498.66;;;29.57;72.39
40502;BME280;29631;49.168;9.848;2023-06-24T10:34:40;97495.31;;;29.60;72.92
40502;BME280;29631;49.168;9.848;2023-06-24T10:37:19;97490.97;;;29.59;73.07
40502;BME280;29631;49.168;9.848;2023-06-24T10:39:56;97494.28;;;29.70;72.50
40502;BME280;29631;49.168;9.848;2023-06-24T10:42:37;97493.38;;;29.74;71.91
40502;BME280;29631;49.168;9.848;2023-06-24T10:47:47;97484.13;;;29.75;71.99
40502;BME280;29631;49.168;9.848;2023-06-24T10:50:19;97470.50;;;29.75;71.53
40502;BME280;29631;49.168;9.848;2023-06-24T10:52:48;97477.97;;;29.83;71.41
40502;BME280;29631;49.168;9.848;2023-06-24T10:55:16;97469.28;;;29.81;71.52
40502;BME280;29631;49.168;9.848;2023-06-24T10:57:42;97481.06;;;29.90;71.17
40502;BME280;29631;49.168;9.848;2023-06-24T11:00:10;97456.75;;;29.94;70.80
40502;BME280;29631;49.168;9.848;2023-06-24T11:02:36;97453.13;;;29.98;70.54
40502;BME280;29631;49.168;9.848;2023-06-24T11:05:04;97453.50;;;30.05;70.69
40502;BME280;29631;49.168;9.848;2023-06-24T11:07:37;97453.19;;;30.07;70.88
40502;BME280;29631;49.168;9.848;2023-06-24T11:10:15;97456.78;;;30.16;70.35
40502;BME280;29631;49.168;9.848;2023-06-24T11:12:42;97441.75;;;30.18;70.78
40502;BME280;29631;49.168;9.848;2023-06-24T11:15:13;97425.22;;;30.15;71.24
40502;BME280;29631;49.168;9.848;2023-06-24T11:17:40;97431.91;;;30.30;70.08
40502;BME280;29631;49.168;9.848;2023-06-24T11:20:11;97441.25;;;30.38;70.65
40502;BME280;29631;49.168;9.848;2023-06-24T11:22:37;97449.06;;;30.53;69.96
40502;BME280;29631;49.168;9.848;2023-06-24T11:25:05;97435.91;;;30.55;70.16
40502;BME280;29631;49.168;9.848;2023-06-24T11:27:31;97388.53;;;30.34;69.27
40502;BME280;29631;49.168;9.848;2023-06-24T11:29:59;97431.47;;;30.59;68.58
40502;BME280;29631;49.168;9.848;2023-06-24T11:32:36;97390.63;;;30.37;68.31
40502;BME280;29631;49.168;9.848;2023-06-24T11:35:05;97405.97;;;30.55;68.45
40502;BME280;29631;49.168;9.848;2023-06-24T11:37:32;97429.25;;;30.61;68.13
40502;BME280;29631;49.168;9.848;2023-06-24T11:40:06;97417.19;;;30.53;67.82
40502;BME280;29631;49.168;9.848;2023-06-24T11:42:39;97409.94;;;30.49;67.78
40502;BME280;29631;49.168;9.848;2023-06-24T11:45:08;97413.16;;;30.51;68.04
40502;BME280;29631;49.168;9.848;2023-06-24T11:47:35;97409.31;;;30.52;68.05
40502;BME280;29631;49.168;9.848;2023-06-24T11:50:04;97406.63;;;30.60;67.71
40502;BME280;29631;49.168;9.848;2023-06-24T11:52:49;97412.75;;;30.66;67.57
40502;BME280;29631;49.168;9.848;2023-06-24T11:55:23;97400.56;;;30.63;67.40
40502;BME280;29631;49.168;9.848;2023-06-24T11:58:01;97414.84;;;30.69;67.69
40502;BME280;29631;49.168;9.848;2023-06-24T12:00:34;97406.19;;;30.67;67.50
40502;BME280;29631;49.168;9.848;2023-06-24T12:03:05;97405.06;;;30.68;66.78
40502;BME280;29631;49.168;9.848;2023-06-24T12:05:34;97401.22;;;30.69;66.57
40502;BME280;29631;49.168;9.848;2023-06-24T12:08:10;97396.78;;;30.73;66.18
40502;BME280;29631;49.168;9.848;2023-06-24T12:10:38;97380.53;;;30.68;66.87
40502;BME280;29631;49.168;9.848;2023-06-24T12:13:05;97393.41;;;30.76;67.23
40502;BME280;29631;49.168;9.848;2023-06-24T12:15:32;97393.41;;;30.76;66.88
40502;BME280;29631;49.168;9.848;2023-06-24T12:17:58;97371.09;;;30.65;65.83
40502;BME280;29631;49.168;9.848;2023-06-24T12:20:25;97387.25;;;30.62;65.41
40502;BME280;29631;49.168;9.848;2023-06-24T12:22:50;97384.66;;;30.57;66.09
40502;BME280;29631;49.168;9.848;2023-06-24T12:25:17;97358.13;;;30.40;65.75
40502;BME280;29631;49.168;9.848;2023-06-24T12:27:43;97375.22;;;30.54;66.43
40502;BME280;29631;49.168;9.848;2023-06-24T12:30:10;97370.56;;;30.55;65.34
40502;BME280;29631;49.168;9.848;2023-06-24T12:32:37;97367.22;;;30.58;65.60
40502;BME280;29631;49.168;9.848;2023-06-24T12:35:03;97371.53;;;30.59;65.39
40502;BME280;29631;49.168;9.848;2023-06-24T12:37:33;97351.78;;;30.45;65.09
40502;BME280;29631;49.168;9.848;2023-06-24T12:40:00;97367.34;;;30.53;64.72
40502;BME280;29631;49.168;9.848;2023-06-24T12:42:27;97347.41;;;30.44;65.21
40502;BME280;29631;49.168;9.848;2023-06-24T12:44:53;97355.81;;;30.56;65.63
40502;BME280;29631;49.168;9.848;2023-06-24T12:47:20;97368.06;;;30.67;65.75
40502;BME280;29631;49.168;9.848;2023-06-24T12:49:46;97296.16;;;30.37;65.15
40502;BME280;29631;49.168;9.848;2023-06-24T12:52:13;97358.47;;;30.78;65.44
40502;BME280;29631;49.168;9.848;2023-06-24T12:54:39;97347.44;;;30.83;65.78
40502;BME280;29631;49.168;9.848;2023-06-24T12:57:05;97355.31;;;30.92;65.66
40502;BME280;29631;49.168;9.848;2023-06-24T12:59:31;97335.75;;;30.91;65.74
40502;BME280;29631;49.168;9.848;2023-06-24T13:01:57;97345.75;;;31.03;65.78
40502;BME280;29631;49.168;9.848;2023-06-24T13:04:22;97341.59;;;31.14;65.45
40502;BME280;29631;49.168;9.848;2023-06-24T13:06:51;97347.53;;;31.25;64.97
40502;BME280;29631;49.168;9.848;2023-06-24T13:09:17;97359.13;;;31.30;64.96
40502;BME280;29631;49.168;9.848;2023-06-24T13:11:43;97341.81;;;31.35;64.40
40502;BME280;29631;49.168;9.848;2023-06-24T13:14:09;97339.84;;;31.44;64.94
40502;BME280;29631;49.168;9.848;2023-06-24T13:16:38;97332.16;;;31.46;63.91
40502;BME280;29631;49.168;9.848;2023-06-24T13:19:04;97324.31;;;31.44;63.55
40502;BME280;29631;49.168;9.848;2023-06-24T13:21:30;97333.31;;;31.53;63.98